createdAt,value
2018-01-13T00:00:32.896Z,98805.20
2018-01-13T00:01:37.506Z,98808.61
2018-01-13T00:02:41.976Z,98806.48
2018-01-13T00:03:46.614Z,98806.05
2018-01-13T00:04:51.223Z,98806.45
2018-01-13T00:05:56.121Z,98808.91
2018-01-13T00:07:00.735Z,98803.53
2018-01-13T00:08:05.335Z,98806.41
2018-01-13T00:09:09.956Z,98801.43
2018-01-13T00:10:14.608Z,98806.83
2018-01-13T00:11:19.224Z,98798.94
2018-01-13T00:12:24.312Z,98804.69
2018-01-13T00:13:29.012Z,98797.19
2018-01-13T00:14:33.681Z,98805.48
2018-01-13T00:15:38.314Z,98805.09
2018-01-13T00:16:43.062Z,98805.16
2018-01-13T00:17:47.780Z,98808.91
2018-01-13T00:18:52.818Z,98804.35
2018-01-13T00:19:57.536Z,98805.58
2018-01-13T00:21:02.284Z,98805.17
2018-01-13T00:22:06.999Z,98809.05
2018-01-13T00:23:11.768Z,98809.52
2018-01-13T00:24:16.467Z,98804.77
2018-01-13T00:25:21.618Z,98810.21
2018-01-13T00:26:26.320Z,98808.62
2018-01-13T00:27:31.019Z,98805.26
2018-01-13T00:28:35.639Z,98805.31
2018-01-13T00:29:40.348Z,98808.17
2018-01-13T00:30:44.938Z,98804.05
2018-01-13T00:31:50.043Z,98807.36
2018-01-13T00:32:54.691Z,98806.08
2018-01-13T00:33:59.401Z,98798.22
2018-01-13T00:35:04.147Z,98799.33
2018-01-13T00:36:08.822Z,98796.17
2018-01-13T00:37:13.507Z,98803.67
2018-01-13T00:38:18.540Z,98802.87
2018-01-13T00:39:23.732Z,98804.54
2018-01-13T00:40:28.440Z,98804.61
2018-01-13T00:41:33.248Z,98807.50
2018-01-13T00:42:37.983Z,98808.33
2018-01-13T00:43:42.696Z,98813.25
2018-01-13T00:44:47.383Z,98807.77
2018-01-13T00:45:52.226Z,98804.45
2018-01-13T00:46:56.874Z,98808.25
2018-01-13T00:48:01.602Z,98808.66
2018-01-13T00:49:06.312Z,98808.21
2018-01-13T00:50:11.501Z,98801.91
2018-01-13T00:51:16.069Z,98795.25
2018-01-13T00:52:20.746Z,98801.91
2018-01-13T00:53:25.460Z,98802.34
2018-01-13T00:54:30.187Z,98803.09
2018-01-13T00:55:34.950Z,98796.42
2018-01-13T00:56:40.143Z,98801.08
2018-01-13T00:57:44.812Z,98797.33
2018-01-13T00:58:49.522Z,98794.73
2018-01-13T00:59:54.127Z,98804.71
2018-01-13T01:00:58.839Z,98801.36
2018-01-13T01:02:03.526Z,98798.49
2018-01-13T01:03:08.676Z,98798.49
2018-01-13T01:04:13.374Z,98793.16
2018-01-13T01:05:18.093Z,98800.11
2018-01-13T01:06:22.769Z,98790.05
2018-01-13T01:07:27.403Z,98793.27
2018-01-13T01:08:32.020Z,98794.54
2018-01-13T01:09:37.076Z,98795.95
2018-01-13T01:10:41.702Z,98793.40
2018-01-13T01:11:46.302Z,98788.81
2018-01-13T01:12:50.924Z,98794.64
2018-01-13T01:13:55.612Z,98795.47
2018-01-13T01:15:00.348Z,98794.93
2018-01-13T01:16:05.478Z,98795.36
2018-01-13T01:17:10.210Z,98793.40
2018-01-13T01:18:14.978Z,98791.72
2018-01-13T01:19:19.643Z,98794.15
2018-01-13T01:20:24.340Z,98797.16
2018-01-13T01:21:29.074Z,98795.52
2018-01-13T01:22:34.243Z,98798.05
2018-01-13T01:23:38.972Z,98793.45
2018-01-13T01:24:43.652Z,98795.14
2018-01-13T01:25:48.368Z,98797.64
2018-01-13T01:26:52.959Z,98801.81
2018-01-13T01:27:58.616Z,98805.59
2018-01-13T01:29:03.617Z,98805.53
2018-01-13T01:30:08.318Z,98804.69
2018-01-13T01:31:12.983Z,98802.28
2018-01-13T01:32:17.632Z,98803.14
2018-01-13T01:33:22.288Z,98806.41
2018-01-13T01:34:27.003Z,98808.79
2018-01-13T01:35:31.979Z,98805.05
2018-01-13T01:36:36.652Z,98804.61
2018-01-13T01:37:41.364Z,98802.25
2018-01-13T01:38:46.005Z,98810.63
2018-01-13T01:39:50.714Z,98807.23
2018-01-13T01:40:55.380Z,98804.78
2018-01-13T01:42:00.733Z,98801.00
2018-01-13T01:43:05.407Z,98808.89
2018-01-13T01:44:10.153Z,98800.64
2018-01-13T01:45:14.807Z,98798.12
2018-01-13T01:46:19.524Z,98803.09
2018-01-13T01:47:24.168Z,98805.24
2018-01-13T01:48:29.187Z,98804.48
2018-01-13T01:49:33.915Z,98803.27
2018-01-13T01:50:38.756Z,98799.88
2018-01-13T01:51:43.427Z,98805.36
2018-01-13T01:52:48.143Z,98798.55
2018-01-13T01:53:52.807Z,98798.73
2018-01-13T01:54:57.971Z,98795.45
2018-01-13T01:56:02.640Z,98797.95
2018-01-13T01:57:07.303Z,98801.72
2018-01-13T01:58:11.943Z,98795.92
2018-01-13T01:59:16.636Z,98798.91
2018-01-13T02:00:21.300Z,98794.83
2018-01-13T02:01:26.455Z,98799.48
2018-01-13T02:02:31.591Z,98799.55
2018-01-13T02:03:36.255Z,98795.82
2018-01-13T02:04:40.969Z,98793.31
2018-01-13T02:05:45.672Z,98798.83
2018-01-13T02:06:50.370Z,98792.55
2018-01-13T02:07:55.489Z,98789.35
2018-01-13T02:09:00.143Z,98784.83
2018-01-13T02:10:04.758Z,98783.20
2018-01-13T02:11:09.477Z,98781.08
2018-01-13T02:12:14.122Z,98785.28
2018-01-13T02:13:18.788Z,98789.02
2018-01-13T02:14:23.892Z,98778.66
2018-01-13T02:15:29.154Z,98781.58
2018-01-13T02:16:33.804Z,98780.85
2018-01-13T02:17:38.553Z,98785.88
2018-01-13T02:18:43.246Z,98790.42
2018-01-13T02:19:47.919Z,98787.95
2018-01-13T02:20:52.973Z,98786.72
2018-01-13T02:21:57.745Z,98785.36
2018-01-13T02:23:02.397Z,98787.82
2018-01-13T02:24:07.126Z,98786.58
2018-01-13T02:25:11.809Z,98785.62
2018-01-13T02:26:16.572Z,98788.94
2018-01-13T02:27:21.735Z,98784.89
2018-01-13T02:28:26.494Z,98787.02
2018-01-13T02:29:31.187Z,98782.93
2018-01-13T02:30:35.865Z,98789.92
2018-01-13T02:31:40.533Z,98791.95
2018-01-13T02:32:45.220Z,98784.52
2018-01-13T02:33:50.242Z,98785.27
2018-01-13T02:34:55.025Z,98785.66
2018-01-13T02:35:59.712Z,98782.27
2018-01-13T02:37:04.400Z,98786.41
2018-01-13T02:38:09.106Z,98782.37
2018-01-13T02:39:13.861Z,98781.27
2018-01-13T02:40:18.927Z,98781.67
2018-01-13T02:41:23.582Z,98779.52
2018-01-13T02:42:28.271Z,98779.95
2018-01-13T02:43:32.963Z,98787.48
2018-01-13T02:44:37.806Z,98779.72
2018-01-13T02:45:42.737Z,98782.20
2018-01-13T02:46:47.209Z,98783.88
2018-01-13T02:47:51.749Z,98783.49
2018-01-13T02:48:56.343Z,98782.61
2018-01-13T02:50:01.062Z,98782.19
2018-01-13T02:51:05.827Z,98791.30
2018-01-13T02:52:10.736Z,98785.92
2018-01-13T02:53:15.370Z,98783.04
2018-01-13T02:54:19.941Z,98789.62
2018-01-13T02:55:24.557Z,98782.09
2018-01-13T02:56:29.158Z,98783.42
2018-01-13T02:57:33.745Z,98780.95
2018-01-13T02:58:38.625Z,98782.93
2018-01-13T02:59:43.389Z,98784.19
2018-01-13T03:00:47.968Z,98782.66
2018-01-13T03:01:52.559Z,98780.34
2018-01-13T03:02:56.992Z,98777.77
2018-01-13T03:04:01.418Z,98773.33
2018-01-13T03:05:06.206Z,98778.66
2018-01-13T03:06:10.749Z,98772.80
2018-01-13T03:07:15.191Z,98769.55
2018-01-13T03:08:19.792Z,98769.29
2018-01-13T03:09:24.354Z,98764.36
2018-01-13T03:10:29.030Z,98760.60
2018-01-13T03:11:34.038Z,98766.91
2018-01-13T03:12:38.713Z,98762.36
2018-01-13T03:13:43.190Z,98763.18
2018-01-13T03:14:47.591Z,98761.91
2018-01-13T03:15:52.014Z,98762.33
2018-01-13T03:16:56.478Z,98762.00
2018-01-13T03:18:01.370Z,98760.86
2018-01-13T03:19:05.948Z,98758.32
2018-01-13T03:20:10.566Z,98757.45
2018-01-13T03:21:16.037Z,98761.30
2018-01-13T03:22:20.718Z,98760.10
2018-01-13T03:23:25.308Z,98755.89
2018-01-13T03:24:30.278Z,98753.33
2018-01-13T03:25:34.900Z,98758.69
2018-01-13T03:26:39.570Z,98757.92
2018-01-13T03:27:44.148Z,98754.16
2018-01-13T03:28:48.721Z,98757.00
2018-01-13T03:29:53.313Z,98758.25
2018-01-13T03:30:58.297Z,98759.14
2018-01-13T03:32:02.882Z,98754.77
2018-01-13T03:33:07.464Z,98764.72
2018-01-13T03:34:12.044Z,98759.44
2018-01-13T03:35:16.629Z,98755.74
2018-01-13T03:36:21.227Z,98747.89
2018-01-13T03:37:26.213Z,98756.05
2018-01-13T03:38:30.840Z,98760.20
2018-01-13T03:39:35.416Z,98757.75
2018-01-13T03:40:40.048Z,98756.91
2018-01-13T03:41:44.638Z,98753.11
2018-01-13T03:42:49.221Z,98755.63
2018-01-13T03:43:54.252Z,98748.12
2018-01-13T03:44:58.920Z,98750.22
2018-01-13T03:46:03.572Z,98753.13
2018-01-13T03:47:08.241Z,98750.55
2018-01-13T03:48:12.907Z,98748.44
2018-01-13T03:49:17.579Z,98749.64
2018-01-13T03:50:22.621Z,98757.57
2018-01-13T03:51:27.322Z,98754.59
2018-01-13T03:52:32.143Z,98746.31
2018-01-13T03:53:36.976Z,98748.81
2018-01-13T03:54:41.648Z,98753.48
2018-01-13T03:55:46.370Z,98750.87
2018-01-13T03:56:51.346Z,98748.78
2018-01-13T03:57:55.987Z,98749.13
2018-01-13T03:59:00.592Z,98745.45
2018-01-13T04:00:05.166Z,98743.70
2018-01-13T04:01:09.744Z,98742.86
2018-01-13T04:02:14.362Z,98738.62
2018-01-13T04:03:19.378Z,98739.02
2018-01-13T04:04:23.952Z,98740.23
2018-01-13T04:05:28.593Z,98741.41
2018-01-13T04:06:33.172Z,98738.98
2018-01-13T04:07:37.608Z,98739.91
2018-01-13T04:08:42.168Z,98738.33
2018-01-13T04:09:47.226Z,98734.23
2018-01-13T04:10:51.887Z,98734.56
2018-01-13T04:11:56.581Z,98734.53
2018-01-13T04:13:01.259Z,98735.45
2018-01-13T04:14:06.042Z,98736.95
2018-01-13T04:15:10.776Z,98738.58
2018-01-13T04:16:15.896Z,98731.03
2018-01-13T04:17:20.519Z,98733.52
2018-01-13T04:18:25.121Z,98734.41
2018-01-13T04:19:29.719Z,98736.11
2018-01-13T04:20:34.292Z,98729.07
2018-01-13T04:21:39.370Z,98727.47
2018-01-13T04:22:44.200Z,98728.83
2018-01-13T04:23:48.829Z,98722.62
2018-01-13T04:24:53.458Z,98722.14
2018-01-13T04:25:58.032Z,98721.22
2018-01-13T04:27:02.755Z,98723.30
2018-01-13T04:28:07.635Z,98720.36
2018-01-13T04:29:12.224Z,98721.19
2018-01-13T04:30:16.813Z,98718.72
2018-01-13T04:31:21.228Z,98718.69
2018-01-13T04:32:25.648Z,98718.25
2018-01-13T04:33:30.098Z,98711.19
2018-01-13T04:34:35.144Z,98715.10
2018-01-13T04:35:39.779Z,98718.95
2018-01-13T04:36:44.355Z,98715.59
2018-01-13T04:37:48.956Z,98714.39
2018-01-13T04:38:53.531Z,98717.66
2018-01-13T04:39:58.283Z,98715.20
2018-01-13T04:41:03.241Z,98719.52
2018-01-13T04:42:07.812Z,98715.78
2018-01-13T04:43:12.398Z,98717.50
2018-01-13T04:44:17.064Z,98715.81
2018-01-13T04:45:21.680Z,98705.94
2018-01-13T04:46:26.345Z,98715.00
2018-01-13T04:47:31.340Z,98716.17
2018-01-13T04:48:35.942Z,98720.83
2018-01-13T04:49:40.561Z,98713.45
2018-01-13T04:50:45.144Z,98711.75
2018-01-13T04:51:49.774Z,98717.58
2018-01-13T04:52:54.350Z,98720.87
2018-01-13T04:53:59.557Z,98722.09
2018-01-13T04:55:04.158Z,98725.53
2018-01-13T04:56:08.773Z,98721.48
2018-01-13T04:57:13.416Z,98725.14
2018-01-13T04:58:17.856Z,98718.57
2018-01-13T04:59:22.264Z,98723.49
2018-01-13T05:00:27.186Z,98724.02
2018-01-13T05:01:31.720Z,98725.34
2018-01-13T05:02:36.235Z,98722.41
2018-01-13T05:03:40.883Z,98718.36
2018-01-13T05:04:45.601Z,98720.87
2018-01-13T05:05:50.224Z,98722.03
2018-01-13T05:06:55.258Z,98720.44
2018-01-13T05:07:59.935Z,98723.75
2018-01-13T05:09:04.727Z,98715.29
2018-01-13T05:10:09.451Z,98718.45
2018-01-13T05:11:14.130Z,98718.89
2018-01-13T05:12:18.779Z,98714.30
2018-01-13T05:13:23.766Z,98717.52
2018-01-13T05:14:28.434Z,98723.41
2018-01-13T05:15:33.064Z,98715.70
2018-01-13T05:16:37.841Z,98726.85
2018-01-13T05:17:42.476Z,98712.66
2018-01-13T05:18:47.066Z,98726.74
2018-01-13T05:19:51.753Z,98725.95
2018-01-13T05:20:56.251Z,98724.66
2018-01-13T05:22:00.740Z,98726.84
2018-01-13T05:23:05.226Z,98733.48
2018-01-13T05:24:09.753Z,98727.25
2018-01-13T05:25:14.379Z,98731.86
2018-01-13T05:26:19.484Z,98733.52
2018-01-13T05:27:24.090Z,98733.02
2018-01-13T05:28:28.619Z,98729.27
2018-01-13T05:29:33.100Z,98731.72
2018-01-13T05:30:37.564Z,98731.72
2018-01-13T05:31:42.906Z,98732.96
2018-01-13T05:32:47.833Z,98728.05
2018-01-13T05:33:52.632Z,98733.40
2018-01-13T05:34:57.119Z,98728.48
2018-01-13T05:36:01.585Z,98734.27
2018-01-13T05:37:06.118Z,98730.69
2018-01-13T05:38:10.627Z,98731.15
2018-01-13T05:39:15.428Z,98731.13
2018-01-13T05:40:20.009Z,98737.34
2018-01-13T05:41:24.600Z,98733.28
2018-01-13T05:42:29.023Z,98730.33
2018-01-13T05:43:33.460Z,98742.45
2018-01-13T05:44:37.913Z,98742.90
2018-01-13T05:45:42.845Z,98745.89
2018-01-13T05:46:47.372Z,98742.06
2018-01-13T05:47:51.845Z,98744.61
2018-01-13T05:48:56.379Z,98745.09
2018-01-13T05:50:00.884Z,98743.44
2018-01-13T05:51:05.398Z,98748.36
2018-01-13T05:52:10.419Z,98751.65
2018-01-13T05:53:15.018Z,98744.66
2018-01-13T05:54:20.363Z,98747.48
2018-01-13T05:55:24.939Z,98749.55
2018-01-13T05:56:29.640Z,98750.34
2018-01-13T05:57:34.238Z,98750.34
2018-01-13T05:58:39.295Z,98743.41
2018-01-13T05:59:43.886Z,98741.83
2018-01-13T06:00:48.474Z,98744.73
2018-01-13T06:01:53.181Z,98750.14
2018-01-13T06:02:57.709Z,98742.67
2018-01-13T06:04:02.292Z,98742.26
2018-01-13T06:05:07.356Z,98743.50
2018-01-13T06:06:11.969Z,98746.38
2018-01-13T06:07:16.645Z,98746.41
2018-01-13T06:08:22.497Z,98752.22
2018-01-13T06:09:27.070Z,98745.17
2018-01-13T06:10:31.651Z,98752.22
2018-01-13T06:11:36.684Z,98751.82
2018-01-13T06:12:41.301Z,98742.73
2018-01-13T06:13:45.874Z,98744.81
2018-01-13T06:14:50.538Z,98746.41
2018-01-13T06:15:55.225Z,98750.54
2018-01-13T06:16:59.856Z,98750.13
2018-01-13T06:18:05.024Z,98748.06
2018-01-13T06:19:10.012Z,98747.69
2018-01-13T06:20:14.677Z,98746.42
2018-01-13T06:21:19.366Z,98749.70
2018-01-13T06:22:23.960Z,98750.83
2018-01-13T06:23:28.808Z,98741.71
2018-01-13T06:24:33.822Z,98746.75
2018-01-13T06:25:38.554Z,98747.16
2018-01-13T06:26:43.124Z,98745.93
2018-01-13T06:27:47.795Z,98749.22
2018-01-13T06:28:52.380Z,98748.81
2018-01-13T06:29:57.038Z,98746.28
2018-01-13T06:31:01.777Z,98743.75
2018-01-13T06:32:06.217Z,98746.27
2018-01-13T06:33:10.632Z,98740.57
2018-01-13T06:34:15.046Z,98748.88
2018-01-13T06:35:19.487Z,98745.15
2018-01-13T06:36:23.932Z,98740.26
2018-01-13T06:37:28.850Z,98739.03
2018-01-13T06:38:33.826Z,98744.36
2018-01-13T06:39:38.269Z,98743.42
2018-01-13T06:40:42.859Z,98745.16
2018-01-13T06:41:47.490Z,98750.15
2018-01-13T06:42:52.158Z,98751.03
2018-01-13T06:43:56.778Z,98749.83
2018-01-13T06:45:01.451Z,98751.19
2018-01-13T06:46:06.656Z,98748.35
2018-01-13T06:47:11.268Z,98751.69
2018-01-13T06:48:15.959Z,98752.89
2018-01-13T06:49:20.941Z,98754.98
2018-01-13T06:50:25.644Z,98754.16
2018-01-13T06:51:30.263Z,98750.07
2018-01-13T06:52:34.888Z,98752.94
2018-01-13T06:53:39.468Z,98755.44
2018-01-13T06:54:44.083Z,98756.27
2018-01-13T06:55:48.969Z,98752.55
2018-01-13T06:56:53.659Z,98762.86
2018-01-13T06:57:58.268Z,98761.64
2018-01-13T06:59:02.872Z,98762.55
2018-01-13T07:00:07.498Z,98761.34
2018-01-13T07:01:12.148Z,98748.11
2018-01-13T07:02:17.203Z,98756.38
2018-01-13T07:03:21.812Z,98761.79
2018-01-13T07:04:26.389Z,98755.55
2018-01-13T07:05:30.998Z,98759.61
2018-01-13T07:06:35.609Z,98764.63
2018-01-13T07:07:40.200Z,98758.44
2018-01-13T07:08:45.289Z,98760.92
2018-01-13T07:09:49.960Z,98757.53
2018-01-13T07:10:54.516Z,98761.58
2018-01-13T07:11:59.094Z,98759.53
2018-01-13T07:13:03.748Z,98762.09
2018-01-13T07:14:08.395Z,98760.02
2018-01-13T07:15:13.495Z,98758.34
2018-01-13T07:16:18.201Z,98762.12
2018-01-13T07:17:22.672Z,98762.08
2018-01-13T07:18:27.252Z,98758.75
2018-01-13T07:19:31.881Z,98763.27
2018-01-13T07:20:36.569Z,98767.83
2018-01-13T07:21:41.748Z,98765.30
2018-01-13T07:22:46.395Z,98765.34
2018-01-13T07:23:51.143Z,98769.49
2018-01-13T07:24:55.700Z,98764.45
2018-01-13T07:26:00.498Z,98767.70
2018-01-13T07:27:05.196Z,98759.80
2018-01-13T07:28:10.287Z,98759.61
2018-01-13T07:29:16.141Z,98758.83
2018-01-13T07:30:20.917Z,98760.84
2018-01-13T07:31:25.594Z,98762.50
2018-01-13T07:32:30.101Z,98765.83
2018-01-13T07:33:34.665Z,98757.52
2018-01-13T07:34:39.600Z,98764.58
2018-01-13T07:35:55.908Z,98762.12
2018-01-13T07:37:01.813Z,98772.04
2018-01-13T07:38:06.531Z,98774.20
2018-01-13T07:39:11.208Z,98761.09
2018-01-13T07:40:15.842Z,98769.78
2018-01-13T07:41:20.962Z,98767.70
2018-01-13T07:42:25.534Z,98764.31
2018-01-13T07:43:30.750Z,98771.34
2018-01-13T07:44:35.339Z,98766.84
2018-01-13T07:45:39.947Z,98766.48
2018-01-13T07:46:44.596Z,98764.78
2018-01-13T07:47:49.721Z,98775.13
2018-01-13T07:48:54.407Z,98793.36
2018-01-13T07:49:59.046Z,98764.03
2018-01-13T07:51:03.982Z,98769.02
2018-01-13T07:52:08.659Z,98759.52
2018-01-13T07:53:13.420Z,98767.38
2018-01-13T07:54:18.637Z,98769.86
2018-01-13T07:55:23.317Z,98771.52
2018-01-13T07:56:28.063Z,98770.28
2018-01-13T07:57:32.738Z,98773.55
2018-01-13T07:58:37.396Z,98777.22
2018-01-13T07:59:42.140Z,98781.80
2018-01-13T08:00:47.371Z,98779.27
2018-01-13T08:01:52.091Z,98776.73
2018-01-13T08:02:56.863Z,98770.88
2018-01-13T08:04:01.967Z,98772.14
2018-01-13T08:05:06.686Z,98771.34
2018-01-13T08:06:11.559Z,98767.92
2018-01-13T08:07:16.780Z,98770.06
2018-01-13T08:08:21.503Z,98775.91
2018-01-13T08:09:26.298Z,98770.97
2018-01-13T08:10:30.851Z,98770.54
2018-01-13T08:11:35.501Z,98766.78
2018-01-13T08:12:40.165Z,98769.59
2018-01-13T08:13:45.267Z,98767.92
2018-01-13T08:14:49.901Z,98764.20
2018-01-13T08:15:54.618Z,98765.45
2018-01-13T08:16:59.498Z,98768.76
2018-01-13T08:18:04.174Z,98764.54
2018-01-13T08:19:08.741Z,98766.64
2018-01-13T08:20:13.750Z,98770.76
2018-01-13T08:21:18.282Z,98766.88
2018-01-13T08:22:22.904Z,98777.25
2018-01-13T08:23:27.485Z,98776.36
2018-01-13T08:24:32.233Z,98776.69
2018-01-13T08:25:36.999Z,98775.91
2018-01-13T08:26:42.020Z,98776.23
2018-01-13T08:27:46.655Z,98777.37
2018-01-13T08:28:51.407Z,98777.77
2018-01-13T08:29:56.135Z,98768.19
2018-01-13T08:31:00.873Z,98770.16
2018-01-13T08:32:05.741Z,98774.86
2018-01-13T08:33:10.803Z,98769.16
2018-01-13T08:34:15.791Z,98779.53
2018-01-13T08:35:20.552Z,98777.44
2018-01-13T08:36:25.239Z,98776.98
2018-01-13T08:37:30.665Z,98778.50
2018-01-13T08:38:35.382Z,98776.34
2018-01-13T08:39:40.347Z,98775.03
2018-01-13T08:40:44.884Z,98779.72
2018-01-13T08:41:49.449Z,98772.19
2018-01-13T08:42:54.060Z,98777.89
2018-01-13T08:43:58.595Z,98775.84
2018-01-13T08:45:03.126Z,98775.87
2018-01-13T08:46:08.008Z,98781.23
2018-01-13T08:47:12.575Z,98778.37
2018-01-13T08:48:17.112Z,98779.72
2018-01-13T08:49:21.685Z,98776.33
2018-01-13T08:50:26.264Z,98781.66
2018-01-13T08:51:30.908Z,98769.14
2018-01-13T08:52:36.003Z,98780.05
2018-01-13T08:53:40.583Z,98773.41
2018-01-13T08:54:45.083Z,98786.34
2018-01-13T08:55:49.791Z,98787.16
2018-01-13T08:56:54.470Z,98785.87
2018-01-13T08:57:59.376Z,98785.88
2018-01-13T08:59:05.620Z,98786.69
2018-01-13T09:00:10.558Z,98789.89
2018-01-13T09:01:15.411Z,98787.41
2018-01-13T09:02:20.270Z,98786.17
2018-01-13T09:03:25.146Z,98791.10
2018-01-13T09:04:29.924Z,98787.38
2018-01-13T09:05:34.929Z,98783.97
2018-01-13T09:06:39.698Z,98786.92
2018-01-13T09:07:44.421Z,98793.88
2018-01-13T09:08:49.119Z,98785.70
2018-01-13T09:09:53.873Z,98791.56
2018-01-13T09:10:58.631Z,98787.33
2018-01-13T09:12:03.722Z,98793.52
2018-01-13T09:13:08.488Z,98793.03
2018-01-13T09:14:13.334Z,98787.59
2018-01-13T09:15:18.051Z,98786.88
2018-01-13T09:16:22.777Z,98788.05
2018-01-13T09:17:27.486Z,98783.00
2018-01-13T09:18:32.822Z,98785.20
2018-01-13T09:19:37.474Z,98780.67
2018-01-13T09:20:42.210Z,98781.64
2018-01-13T09:21:47.030Z,98782.11
2018-01-13T09:22:51.653Z,98772.58
2018-01-13T09:23:56.362Z,98776.63
2018-01-13T09:25:01.405Z,98778.33
2018-01-13T09:26:06.028Z,98783.59
2018-01-13T09:27:10.638Z,98780.62
2018-01-13T09:28:15.387Z,98780.91
2018-01-13T09:29:20.143Z,98778.88
2018-01-13T09:30:24.893Z,98777.20
2018-01-13T09:31:29.949Z,98777.94
2018-01-13T09:32:34.852Z,98780.03
2018-01-13T09:33:39.613Z,98780.11
2018-01-13T09:34:44.864Z,98792.69
2018-01-13T09:35:49.943Z,98781.44
2018-01-13T09:36:55.103Z,98787.27
2018-01-13T09:38:00.828Z,98784.69
2018-01-13T09:39:07.229Z,98777.84
2018-01-13T09:40:13.355Z,98774.80
2018-01-13T09:41:19.496Z,98772.16
2018-01-13T09:42:25.112Z,98774.30
2018-01-13T09:43:34.489Z,98773.44
2018-01-13T09:44:39.153Z,98776.19
2018-01-13T09:45:44.678Z,98777.21
2018-01-13T09:46:50.448Z,98779.19
2018-01-13T09:47:55.636Z,98781.08
2018-01-13T09:49:01.666Z,98779.41
2018-01-13T09:50:07.058Z,98778.87
2018-01-13T09:51:11.897Z,98778.87
2018-01-13T09:52:17.113Z,98779.23
2018-01-13T09:53:22.254Z,98782.85
2018-01-13T09:54:28.816Z,98785.61
2018-01-13T09:55:35.602Z,98783.14
2018-01-13T09:56:41.428Z,98789.22
2018-01-13T09:57:46.973Z,98777.80
2018-01-13T09:58:52.553Z,98777.00
2018-01-13T09:59:58.773Z,98771.72
2018-01-13T10:01:04.632Z,98780.92
2018-01-13T10:02:10.551Z,98772.14
2018-01-13T10:03:16.214Z,98779.55
2018-01-13T10:04:21.935Z,98777.94
2018-01-13T10:05:27.414Z,98776.92
2018-01-13T10:06:33.043Z,98771.42
2018-01-13T10:07:38.828Z,98777.64
2018-01-13T10:08:44.498Z,98778.45
2018-01-13T10:09:49.920Z,98774.41
2018-01-13T10:10:56.215Z,98777.43
2018-01-13T10:12:01.756Z,98780.41
2018-01-13T10:13:06.721Z,98777.52
2018-01-13T10:14:11.797Z,98780.31
2018-01-13T10:15:17.095Z,98783.66
2018-01-13T10:16:21.804Z,98777.55
2018-01-13T10:17:26.539Z,98778.36
2018-01-13T10:18:31.440Z,98768.47
2018-01-13T10:19:36.160Z,98770.54
2018-01-13T10:20:40.968Z,98780.33
2018-01-13T10:21:46.120Z,98773.70
2018-01-13T10:22:50.850Z,98779.55
2018-01-13T10:23:55.525Z,98774.91
2018-01-13T10:25:00.185Z,98772.48
2018-01-13T10:26:04.799Z,98765.50
2018-01-13T10:27:09.457Z,98762.14
2018-01-13T10:28:14.645Z,98768.42
2018-01-13T10:29:19.261Z,98776.34
2018-01-13T10:30:23.868Z,98770.02
2018-01-13T10:31:28.655Z,98769.31
2018-01-13T10:32:33.329Z,98770.12
2018-01-13T10:33:38.082Z,98772.04
2018-01-13T10:34:44.096Z,98768.30
2018-01-13T10:35:48.870Z,98770.73
2018-01-13T10:36:53.650Z,98765.73
2018-01-13T10:37:58.489Z,98766.06
2018-01-13T10:39:03.264Z,98765.12
2018-01-13T10:40:08.013Z,98767.70
2018-01-13T10:41:13.065Z,98757.37
2018-01-13T10:42:17.818Z,98762.28
2018-01-13T10:43:22.449Z,98765.60
2018-01-13T10:44:27.164Z,98768.00
2018-01-13T10:45:31.853Z,98760.98
2018-01-13T10:46:36.441Z,98761.45
2018-01-13T10:47:46.506Z,98758.95
2018-01-13T10:48:51.320Z,98751.89
2018-01-13T10:49:55.972Z,98756.02
2018-01-13T10:51:01.133Z,98756.73
2018-01-13T10:52:05.981Z,98757.64
2018-01-13T10:53:10.755Z,98758.94
2018-01-13T10:54:15.854Z,98754.66
2018-01-13T10:55:21.080Z,98756.81
2018-01-13T10:56:25.941Z,98753.84
2018-01-13T10:57:30.726Z,98748.30
2018-01-13T10:58:35.562Z,98754.38
2018-01-13T10:59:40.173Z,98752.66
2018-01-13T11:00:45.521Z,98751.91
2018-01-13T11:01:50.269Z,98744.02
2018-01-13T11:02:54.993Z,98748.48
2018-01-13T11:03:59.859Z,98748.21
2018-01-13T11:05:04.556Z,98751.41
2018-01-13T11:06:09.357Z,98746.47
2018-01-13T11:07:14.417Z,98744.83
2018-01-13T11:08:19.214Z,98750.73
2018-01-13T11:09:23.685Z,98742.59
2018-01-13T11:10:28.147Z,98739.15
2018-01-13T11:11:32.672Z,98750.36
2018-01-13T11:12:37.348Z,98726.82
2018-01-13T11:13:42.249Z,98741.77
2018-01-13T11:14:46.964Z,98747.55
2018-01-13T11:15:51.586Z,98749.23
2018-01-13T11:16:56.360Z,98736.64
2018-01-13T11:18:01.053Z,98739.86
2018-01-13T11:19:05.710Z,98747.74
2018-01-13T11:20:10.844Z,98731.38
2018-01-13T11:21:15.544Z,98738.04
2018-01-13T11:22:20.232Z,98743.73
2018-01-13T11:23:24.935Z,98717.70
2018-01-13T11:24:29.412Z,98729.20
2018-01-13T11:25:34.008Z,98737.40
2018-01-13T11:26:38.947Z,98737.48
2018-01-13T11:27:43.709Z,98726.84
2018-01-13T11:28:48.332Z,98733.64
2018-01-13T11:29:52.996Z,98734.43
2018-01-13T11:30:57.652Z,98721.55
2018-01-13T11:32:02.340Z,98717.70
2018-01-13T11:33:07.355Z,98722.67
2018-01-13T11:34:12.013Z,98722.91
2018-01-13T11:35:16.621Z,98727.91
2018-01-13T11:36:21.287Z,98721.30
2018-01-13T11:37:25.920Z,98724.22
2018-01-13T11:38:30.671Z,98726.37
2018-01-13T11:39:35.724Z,98727.33
2018-01-13T11:40:40.505Z,98724.86
2018-01-13T11:41:45.256Z,98731.91
2018-01-13T11:42:49.946Z,98729.39
2018-01-13T11:43:54.648Z,98727.75
2018-01-13T11:44:59.384Z,98729.47
2018-01-13T11:46:04.407Z,98727.34
2018-01-13T11:47:09.120Z,98733.05
2018-01-13T11:48:13.813Z,98725.21
2018-01-13T11:49:18.512Z,98722.30
2018-01-13T11:50:23.220Z,98727.69
2018-01-13T11:51:27.885Z,98719.96
2018-01-13T11:52:32.970Z,98719.17
2018-01-13T11:53:37.603Z,98724.92
2018-01-13T11:54:42.641Z,98722.88
2018-01-13T11:55:47.296Z,98723.28
2018-01-13T11:56:51.905Z,98716.73
2018-01-13T11:57:56.552Z,98714.14
2018-01-13T11:59:01.676Z,98724.03
2018-01-13T12:00:06.385Z,98713.63
2018-01-13T12:01:11.092Z,98717.34
2018-01-13T12:02:15.771Z,98717.03
2018-01-13T12:03:20.398Z,98718.70
2018-01-13T12:04:25.061Z,98719.08
2018-01-13T12:05:30.385Z,98712.81
2018-01-13T12:06:35.092Z,98714.98
2018-01-13T12:07:39.805Z,98710.14
2018-01-13T12:08:44.559Z,98707.98
2018-01-13T12:09:49.322Z,98704.63
2018-01-13T12:10:54.016Z,98703.32
2018-01-13T12:11:59.015Z,98702.47
2018-01-13T12:13:03.747Z,98708.59
2018-01-13T12:14:08.383Z,98702.36
2018-01-13T12:15:12.980Z,98698.80
2018-01-13T12:16:17.902Z,98705.46
2018-01-13T12:17:22.528Z,98703.75
2018-01-13T12:18:27.474Z,98700.72
2018-01-13T12:19:32.386Z,98695.20
2018-01-13T12:20:37.101Z,98697.76
2018-01-13T12:21:41.835Z,98696.30
2018-01-13T12:22:47.418Z,98700.61
2018-01-13T12:23:52.156Z,98693.48
2018-01-13T12:24:57.282Z,98685.62
2018-01-13T12:26:02.021Z,98695.16
2018-01-13T12:27:06.760Z,98696.37
2018-01-13T12:28:11.576Z,98687.27
2018-01-13T12:29:16.374Z,98687.21
2018-01-13T12:30:21.111Z,98686.08
2018-01-13T12:31:26.195Z,98683.86
2018-01-13T12:32:30.934Z,98679.88
2018-01-13T12:33:35.732Z,98688.61
2018-01-13T12:34:40.341Z,98680.81
2018-01-13T12:35:44.811Z,98676.76
2018-01-13T12:36:49.328Z,98678.30
2018-01-13T12:37:53.775Z,98673.70
2018-01-13T12:38:58.277Z,98676.05
2018-01-13T12:40:02.837Z,98675.20
2018-01-13T12:41:07.497Z,98677.79